sensor_id;sensor_type;location;lat;lon;timestamp;pressure;altitude;pressure_sealevel;temperature;humidity
56992;BME280;42885;49.754;18.636;2022-07-29T00:00:50;98477.59;;;16.21;100.00
56992;BME280;42885;49.754;18.636;2022-07-29T00:03:21;98480.48;;;16.24;100.00
56992;BME280;42885;49.754;18.636;2022-07-29T00:05:51;98473.99;;;16.22;100.00
56992;BME280;42885;49.754;18.636;2022-07-29T00:08:34;98471.63;;;16.14;100.00
56992;BME280;42885;49.754;18.636;2022-07-29T00:11:05;98474.36;;;16.18;100.00
56992;BME280;42885;49.754;18.636;2022-07-29T00:13:36;98469.67;;;16.21;100.00
56992;BME280;42885;49.754;18.636;2022-07-29T00:16:06;98476.19;;;16.06;100.00
56992;BME280;42885;49.754;18.636;2022-07-29T00:18:37;98471.10;;;16.31;100.00
56992;BME280;42885;49.754;18.636;2022-07-29T00:21:09;98473.86;;;16.30;100.00
56992;BME280;42885;49.754;18.636;2022-07-29T00:23:39;98471.52;;;16.15;100.00
56992;BME280;42885;49.754;18.636;2022-07-29T00:26:10;98469.13;;;16.06;100.00
56992;BME280;42885;49.754;18.636;2022-07-29T00:28:41;98472.23;;;16.06;100.00
56992;BME280;42885;49.754;18.636;2022-07-29T00:31:12;98469.23;;;16.05;100.00
56992;BME280;42885;49.754;18.636;2022-07-29T00:33:43;98465.05;;;15.96;100.00
56992;BME280;42885;49.754;18.636;2022-07-29T00:36:14;98455.83;;;16.02;100.00
56992;BME280;42885;49.754;18.636;2022-07-29T00:38:45;98458.32;;;16.04;100.00
56992;BME280;42885;49.754;18.636;2022-07-29T00:41:16;98460.64;;;15.91;100.00
56992;BME280;42885;49.754;18.636;2022-07-29T00:43:47;98460.49;;;15.93;100.00
56992;BME280;42885;49.754;18.636;2022-07-29T00:46:18;98457.00;;;16.04;100.00
56992;BME280;42885;49.754;18.636;2022-07-29T00:48:49;98450.06;;;15.86;100.00
56992;BME280;42885;49.754;18.636;2022-07-29T00:51:20;98453.42;;;15.93;100.00
56992;BME280;42885;49.754;18.636;2022-07-29T00:53:50;98457.72;;;16.00;100.00
56992;BME280;42885;49.754;18.636;2022-07-29T00:56:22;98437.11;;;15.77;100.00
56992;BME280;42885;49.754;18.636;2022-07-29T00:59:13;98437.11;;;15.77;100.00
56992;BME280;42885;49.754;18.636;2022-07-29T01:01:44;98449.23;;;15.74;100.00
56992;BME280;42885;49.754;18.636;2022-07-29T01:04:15;98446.00;;;15.70;100.00
56992;BME280;42885;49.754;18.636;2022-07-29T01:06:47;98439.52;;;15.63;100.00
56992;BME280;42885;49.754;18.636;2022-07-29T01:09:19;98440.48;;;15.45;100.00
56992;BME280;42885;49.754;18.636;2022-07-29T01:11:50;98444.20;;;15.59;100.00
56992;BME280;42885;49.754;18.636;2022-07-29T01:14:21;98437.35;;;15.62;100.00
56992;BME280;42885;49.754;18.636;2022-07-29T01:17:02;98440.34;;;15.63;100.00
56992;BME280;42885;49.754;18.636;2022-07-29T01:19:52;98447.30;;;15.64;100.00
56992;BME280;42885;49.754;18.636;2022-07-29T01:31:43;98447.42;;;15.51;100.00
56992;BME280;42885;49.754;18.636;2022-07-29T01:37:27;98444.33;;;15.46;100.00
56992;BME280;42885;49.754;18.636;2022-07-29T01:39:59;98443.83;;;15.47;100.00
56992;BME280;42885;49.754;18.636;2022-07-29T01:42:36;98436.77;;;15.47;100.00
56992;BME280;42885;49.754;18.636;2022-07-29T01:45:16;98434.84;;;15.55;100.00
56992;BME280;42885;49.754;18.636;2022-07-29T01:48:10;98430.63;;;15.75;100.00
56992;BME280;42885;49.754;18.636;2022-07-29T01:50:49;98426.34;;;15.57;100.00
56992;BME280;42885;49.754;18.636;2022-07-29T01:53:30;98422.63;;;15.65;100.00
56992;BME280;42885;49.754;18.636;2022-07-29T01:56:20;98432.43;;;15.63;100.00
56992;BME280;42885;49.754;18.636;2022-07-29T01:58:52;98429.45;;;15.51;100.00
56992;BME280;42885;49.754;18.636;2022-07-29T02:01:25;98428.12;;;15.57;100.00
56992;BME280;42885;49.754;18.636;2022-07-29T02:03:59;98434.95;;;15.48;100.00
56992;BME280;42885;49.754;18.636;2022-07-29T02:06:33;98429.93;;;15.45;100.00
56992;BME280;42885;49.754;18.636;2022-07-29T02:09:06;98432.70;;;15.49;100.00
56992;BME280;42885;49.754;18.636;2022-07-29T02:11:38;98430.66;;;15.35;100.00
56992;BME280;42885;49.754;18.636;2022-07-29T02:14:11;98425.48;;;15.39;100.00
56992;BME280;42885;49.754;18.636;2022-07-29T02:16:44;98422.84;;;15.39;100.00
56992;BME280;42885;49.754;18.636;2022-07-29T02:19:17;98422.27;;;15.36;100.00
56992;BME280;42885;49.754;18.636;2022-07-29T02:21:51;98420.21;;;15.39;100.00
56992;BME280;42885;49.754;18.636;2022-07-29T02:24:24;98409.06;;;15.53;100.00
56992;BME280;42885;49.754;18.636;2022-07-29T02:26:56;98408.25;;;15.52;100.00
56992;BME280;42885;49.754;18.636;2022-07-29T02:29:30;98410.04;;;15.46;100.00
56992;BME280;42885;49.754;18.636;2022-07-29T02:32:03;98410.26;;;15.43;100.00
56992;BME280;42885;49.754;18.636;2022-07-29T02:34:37;98410.52;;;15.34;100.00
56992;BME280;42885;49.754;18.636;2022-07-29T02:37:10;98408.00;;;15.27;100.00
56992;BME280;42885;49.754;18.636;2022-07-29T02:39:42;98407.03;;;15.28;100.00
56992;BME280;42885;49.754;18.636;2022-07-29T02:42:16;98407.86;;;15.23;100.00
56992;BME280;42885;49.754;18.636;2022-07-29T02:44:47;98410.88;;;15.35;100.00
56992;BME280;42885;49.754;18.636;2022-07-29T02:47:36;98413.38;;;15.31;100.00
56992;BME280;42885;49.754;18.636;2022-07-29T02:50:15;98409.20;;;15.34;100.00
56992;BME280;42885;49.754;18.636;2022-07-29T02:53:18;98407.64;;;15.26;100.00
56992;BME280;42885;49.754;18.636;2022-07-29T02:55:36;98412.91;;;15.37;100.00
56992;BME280;42885;49.754;18.636;2022-07-29T02:58:10;98411.59;;;15.26;100.00
56992;BME280;42885;49.754;18.636;2022-07-29T03:00:41;98412.06;;;15.31;100.00
56992;BME280;42885;49.754;18.636;2022-07-29T03:03:15;98407.02;;;15.39;100.00
56992;BME280;42885;49.754;18.636;2022-07-29T03:05:46;98407.65;;;15.49;100.00
56992;BME280;42885;49.754;18.636;2022-07-29T03:08:17;98412.44;;;15.38;100.00
56992;BME280;42885;49.754;18.636;2022-07-29T03:10:48;98403.58;;;15.27;100.00
56992;BME280;42885;49.754;18.636;2022-07-29T03:13:20;98408.60;;;15.25;100.00
56992;BME280;42885;49.754;18.636;2022-07-29T03:15:52;98398.30;;;15.33;100.00
56992;BME280;42885;49.754;18.636;2022-07-29T03:18:23;98401.77;;;15.28;100.00
56992;BME280;42885;49.754;18.636;2022-07-29T03:20:54;98398.66;;;15.28;100.00
56992;BME280;42885;49.754;18.636;2022-07-29T03:23:25;98396.73;;;15.31;100.00
56992;BME280;42885;49.754;18.636;2022-07-29T03:25:59;98392.78;;;15.25;100.00
56992;BME280;42885;49.754;18.636;2022-07-29T03:28:29;98392.04;;;15.23;100.00
56992;BME280;42885;49.754;18.636;2022-07-29T03:31:00;98396.13;;;15.27;100.00
56992;BME280;42885;49.754;18.636;2022-07-29T03:33:31;98396.85;;;15.23;100.00
56992;BME280;42885;49.754;18.636;2022-07-29T03:36:02;98395.41;;;15.31;100.00
56992;BME280;42885;49.754;18.636;2022-07-29T03:38:34;98393.39;;;15.28;100.00
56992;BME280;42885;49.754;18.636;2022-07-29T03:41:09;98385.95;;;15.17;100.00
56992;BME280;42885;49.754;18.636;2022-07-29T03:43:41;98385.70;;;15.20;100.00
56992;BME280;42885;49.754;18.636;2022-07-29T03:46:14;98380.33;;;15.16;100.00
56992;BME280;42885;49.754;18.636;2022-07-29T03:48:48;98379.94;;;15.09;100.00
56992;BME280;42885;49.754;18.636;2022-07-29T03:51:20;98386.06;;;15.21;100.00
56992;BME280;42885;49.754;18.636;2022-07-29T03:53:52;98388.20;;;14.98;100.00
56992;BME280;42885;49.754;18.636;2022-07-29T03:56:23;98395.75;;;15.14;100.00
56992;BME280;42885;49.754;18.636;2022-07-29T03:58:55;98396.36;;;15.18;100.00
56992;BME280;42885;49.754;18.636;2022-07-29T04:01:28;98404.16;;;15.20;100.00
56992;BME280;42885;49.754;18.636;2022-07-29T04:04:04;98413.05;;;15.36;100.00
56992;BME280;42885;49.754;18.636;2022-07-29T04:06:41;98412.92;;;15.49;100.00
56992;BME280;42885;49.754;18.636;2022-07-29T04:09:12;98415.42;;;15.45;100.00
56992;BME280;42885;49.754;18.636;2022-07-29T04:11:44;98411.23;;;15.25;100.00
56992;BME280;42885;49.754;18.636;2022-07-29T04:14:15;98414.59;;;15.16;100.00
56992;BME280;42885;49.754;18.636;2022-07-29T04:16:46;98410.86;;;15.18;100.00
56992;BME280;42885;49.754;18.636;2022-07-29T04:19:17;98402.97;;;15.35;100.00
56992;BME280;42885;49.754;18.636;2022-07-29T04:21:49;98401.88;;;15.21;100.00
56992;BME280;42885;49.754;18.636;2022-07-29T04:24:21;98403.80;;;15.19;100.00
56992;BME280;42885;49.754;18.636;2022-07-29T04:26:52;98405.72;;;15.28;100.00
56992;BME280;42885;49.754;18.636;2022-07-29T04:29:23;98395.64;;;15.45;100.00
56992;BME280;42885;49.754;18.636;2022-07-29T04:31:54;98393.36;;;15.46;100.00
56992;BME280;42885;49.754;18.636;2022-07-29T04:34:25;98390.72;;;15.63;100.00
56992;BME280;42885;49.754;18.636;2022-07-29T04:36:56;98387.94;;;15.76;100.00
56992;BME280;42885;49.754;18.636;2022-07-29T04:39:27;98385.64;;;15.82;100.00
56992;BME280;42885;49.754;18.636;2022-07-29T04:41:57;98388.87;;;16.03;100.00
56992;BME280;42885;49.754;18.636;2022-07-29T04:44:28;98383.69;;;16.34;100.00
56992;BME280;42885;49.754;18.636;2022-07-29T04:47:16;98381.05;;;16.40;100.00
56992;BME280;42885;49.754;18.636;2022-07-29T04:49:47;98384.47;;;16.46;100.00
56992;BME280;42885;49.754;18.636;2022-07-29T04:52:18;98389.88;;;16.50;100.00
56992;BME280;42885;49.754;18.636;2022-07-29T04:54:49;98393.14;;;16.64;100.00
56992;BME280;42885;49.754;18.636;2022-07-29T04:57:20;98392.98;;;16.77;100.00
56992;BME280;42885;49.754;18.636;2022-07-29T04:59:50;98386.98;;;16.90;100.00
56992;BME280;42885;49.754;18.636;2022-07-29T05:02:21;98393.07;;;17.02;100.00
56992;BME280;42885;49.754;18.636;2022-07-29T05:04:52;98394.84;;;17.08;100.00
56992;BME280;42885;49.754;18.636;2022-07-29T05:07:23;98397.75;;;17.20;100.00
56992;BME280;42885;49.754;18.636;2022-07-29T05:09:54;98404.19;;;17.43;100.00
56992;BME280;42885;49.754;18.636;2022-07-29T05:12:26;98400.78;;;17.46;100.00
56992;BME280;42885;49.754;18.636;2022-07-29T05:14:57;98400.66;;;17.48;100.00
56992;BME280;42885;49.754;18.636;2022-07-29T05:17:28;98402.28;;;17.55;100.00
56992;BME280;42885;49.754;18.636;2022-07-29T05:19:59;98394.54;;;17.73;100.00
56992;BME280;42885;49.754;18.636;2022-07-29T05:22:30;98386.59;;;17.83;100.00
56992;BME280;42885;49.754;18.636;2022-07-29T05:25:01;98386.59;;;17.83;100.00
56992;BME280;42885;49.754;18.636;2022-07-29T05:27:32;98387.47;;;18.03;100.00
56992;BME280;42885;49.754;18.636;2022-07-29T05:30:03;98391.50;;;18.23;100.00
56992;BME280;42885;49.754;18.636;2022-07-29T05:32:47;98395.13;;;18.41;100.00
56992;BME280;42885;49.754;18.636;2022-07-29T05:35:22;98386.11;;;18.58;100.00
56992;BME280;42885;49.754;18.636;2022-07-29T05:37:52;98393.92;;;18.93;100.00
56992;BME280;42885;49.754;18.636;2022-07-29T05:40:23;98387.54;;;19.34;100.00
56992;BME280;42885;49.754;18.636;2022-07-29T05:42:54;98393.16;;;19.31;100.00
56992;BME280;42885;49.754;18.636;2022-07-29T05:45:25;98392.06;;;19.23;100.00
56992;BME280;42885;49.754;18.636;2022-07-29T05:47:57;98394.52;;;19.35;100.00
56992;BME280;42885;49.754;18.636;2022-07-29T05:50:28;98394.41;;;19.40;100.00
56992;BME280;42885;49.754;18.636;2022-07-29T05:52:58;98394.62;;;19.29;100.00
56992;BME280;42885;49.754;18.636;2022-07-29T05:55:29;98387.02;;;19.20;100.00
56992;BME280;42885;49.754;18.636;2022-07-29T05:58:00;98391.32;;;19.31;100.00
56992;BME280;42885;49.754;18.636;2022-07-29T06:00:31;98386.27;;;19.66;100.00
56992;BME280;42885;49.754;18.636;2022-07-29T06:03:02;98389.25;;;19.81;100.00
56992;BME280;42885;49.754;18.636;2022-07-29T06:05:33;98385.97;;;19.69;100.00
56992;BME280;42885;49.754;18.636;2022-07-29T06:08:04;98384.94;;;19.94;100.00
56992;BME280;42885;49.754;18.636;2022-07-29T06:10:36;98386.39;;;19.78;100.00
56992;BME280;42885;49.754;18.636;2022-07-29T06:13:07;98384.08;;;19.79;100.00
56992;BME280;42885;49.754;18.636;2022-07-29T06:15:38;98390.98;;;19.86;100.00
56992;BME280;42885;49.754;18.636;2022-07-29T06:18:09;98391.86;;;20.05;100.00
56992;BME280;42885;49.754;18.636;2022-07-29T06:20:40;98387.95;;;20.31;100.00
56992;BME280;42885;49.754;18.636;2022-07-29T06:23:11;98390.24;;;20.48;100.00
56992;BME280;42885;49.754;18.636;2022-07-29T06:25:42;98390.55;;;20.63;100.00
56992;BME280;42885;49.754;18.636;2022-07-29T06:28:13;98401.41;;;20.74;100.00
56992;BME280;42885;49.754;18.636;2022-07-29T06:30:43;98403.73;;;20.33;100.00
56992;BME280;42885;49.754;18.636;2022-07-29T06:33:18;98400.54;;;20.29;100.00
56992;BME280;42885;49.754;18.636;2022-07-29T06:35:49;98403.11;;;20.80;100.00
56992;BME280;42885;49.754;18.636;2022-07-29T06:38:21;98399.06;;;20.89;100.00
56992;BME280;42885;49.754;18.636;2022-07-29T06:40:52;98396.78;;;21.25;100.00
56992;BME280;42885;49.754;18.636;2022-07-29T06:43:35;98399.90;;;21.51;100.00
56992;BME280;42885;49.754;18.636;2022-07-29T06:46:11;98400.20;;;21.95;100.00
56992;BME280;42885;49.754;18.636;2022-07-29T06:48:42;98392.02;;;21.80;100.00
56992;BME280;42885;49.754;18.636;2022-07-29T06:51:13;98401.05;;;21.49;100.00
56992;BME280;42885;49.754;18.636;2022-07-29T06:53:44;98396.19;;;21.87;100.00
56992;BME280;42885;49.754;18.636;2022-07-29T06:56:15;98401.45;;;22.34;100.00
56992;BME280;42885;49.754;18.636;2022-07-29T06:58:46;98402.19;;;21.85;100.00
56992;BME280;42885;49.754;18.636;2022-07-29T07:01:16;98403.59;;;22.06;100.00
56992;BME280;42885;49.754;18.636;2022-07-29T07:03:47;98395.08;;;22.06;100.00
56992;BME280;42885;49.754;18.636;2022-07-29T07:06:18;98401.05;;;21.96;100.00
56992;BME280;42885;49.754;18.636;2022-07-29T07:08:48;98396.58;;;21.96;100.00
56992;BME280;42885;49.754;18.636;2022-07-29T07:11:20;98399.06;;;21.94;100.00
56992;BME280;42885;49.754;18.636;2022-07-29T07:13:51;98399.06;;;21.94;100.00
56992;BME280;42885;49.754;18.636;2022-07-29T07:16:21;98407.23;;;21.96;100.00
56992;BME280;42885;49.754;18.636;2022-07-29T07:18:52;98406.03;;;21.91;100.00
56992;BME280;42885;49.754;18.636;2022-07-29T07:21:23;98408.18;;;21.87;100.00
56992;BME280;42885;49.754;18.636;2022-07-29T07:23:54;98411.97;;;21.68;100.00
56992;BME280;42885;49.754;18.636;2022-07-29T07:26:25;98411.25;;;21.62;100.00
56992;BME280;42885;49.754;18.636;2022-07-29T07:28:56;98414.27;;;21.67;100.00
56992;BME280;42885;49.754;18.636;2022-07-29T07:31:28;98414.73;;;21.62;100.00
56992;BME280;42885;49.754;18.636;2022-07-29T07:33:59;98416.84;;;21.85;100.00
56992;BME280;42885;49.754;18.636;2022-07-29T07:36:29;98409.36;;;21.84;100.00
56992;BME280;42885;49.754;18.636;2022-07-29T07:39:00;98409.94;;;22.34;100.00
56992;BME280;42885;49.754;18.636;2022-07-29T07:41:31;98411.62;;;22.31;100.00
56992;BME280;42885;49.754;18.636;2022-07-29T07:44:02;98412.77;;;22.32;100.00
56992;BME280;42885;49.754;18.636;2022-07-29T07:46:33;98409.62;;;22.41;100.00
56992;BME280;42885;49.754;18.636;2022-07-29T07:49:04;98409.27;;;22.44;100.00
56992;BME280;42885;49.754;18.636;2022-07-29T07:51:35;98408.98;;;22.51;100.00
56992;BME280;42885;49.754;18.636;2022-07-29T07:54:05;98405.97;;;22.46;100.00
56992;BME280;42885;49.754;18.636;2022-07-29T07:56:36;98413.12;;;22.46;100.00
56992;BME280;42885;49.754;18.636;2022-07-29T07:59:07;98414.97;;;22.78;100.00
56992;BME280;42885;49.754;18.636;2022-07-29T08:01:39;98413.63;;;22.91;100.00
56992;BME280;42885;49.754;18.636;2022-07-29T08:04:11;98419.97;;;22.86;100.00
56992;BME280;42885;49.754;18.636;2022-07-29T08:06:42;98412.82;;;22.69;100.00
56992;BME280;42885;49.754;18.636;2022-07-29T08:09:13;98410.30;;;22.76;100.00
56992;BME280;42885;49.754;18.636;2022-07-29T08:11:43;98406.41;;;23.24;100.00
56992;BME280;42885;49.754;18.636;2022-07-29T08:14:14;98405.06;;;23.20;100.00
56992;BME280;42885;49.754;18.636;2022-07-29T08:16:45;98408.58;;;23.21;100.00
56992;BME280;42885;49.754;18.636;2022-07-29T08:19:16;98409.86;;;23.46;100.00
56992;BME280;42885;49.754;18.636;2022-07-29T08:21:47;98412.20;;;23.36;100.00
56992;BME280;42885;49.754;18.636;2022-07-29T08:24:18;98410.00;;;23.48;100.00
56992;BME280;42885;49.754;18.636;2022-07-29T08:27:06;98411.27;;;23.69;100.00
56992;BME280;42885;49.754;18.636;2022-07-29T08:29:38;98408.11;;;23.61;100.00
56992;BME280;42885;49.754;18.636;2022-07-29T08:32:08;98407.86;;;23.79;100.00
56992;BME280;42885;49.754;18.636;2022-07-29T08:34:39;98401.13;;;24.24;100.00
56992;BME280;42885;49.754;18.636;2022-07-29T08:37:10;98391.98;;;24.18;100.00
56992;BME280;42885;49.754;18.636;2022-07-29T08:39:41;98391.95;;;24.45;100.00
56992;BME280;42885;49.754;18.636;2022-07-29T08:42:12;98395.06;;;24.30;100.00
56992;BME280;42885;49.754;18.636;2022-07-29T08:44:43;98393.92;;;23.97;100.00
56992;BME280;42885;49.754;18.636;2022-07-29T08:47:14;98394.17;;;24.14;100.00
56992;BME280;42885;49.754;18.636;2022-07-29T08:49:45;98389.89;;;24.28;100.00
56992;BME280;42885;49.754;18.636;2022-07-29T08:52:18;98389.72;;;24.68;100.00
56992;BME280;42885;49.754;18.636;2022-07-29T08:54:50;98397.03;;;24.74;100.00
56992;BME280;42885;49.754;18.636;2022-07-29T08:57:23;98398.13;;;25.04;100.00
56992;BME280;42885;49.754;18.636;2022-07-29T08:59:55;98396.17;;;25.27;100.00
56992;BME280;42885;49.754;18.636;2022-07-29T09:02:29;98395.22;;;25.24;100.00
56992;BME280;42885;49.754;18.636;2022-07-29T09:05:02;98399.55;;;25.25;100.00
56992;BME280;42885;49.754;18.636;2022-07-29T09:07:33;98392.60;;;25.20;100.00
56992;BME280;42885;49.754;18.636;2022-07-29T09:10:04;98388.61;;;25.46;100.00
56992;BME280;42885;49.754;18.636;2022-07-29T09:12:36;98393.84;;;25.59;100.00
56992;BME280;42885;49.754;18.636;2022-07-29T09:15:07;98387.84;;;25.56;100.00
56992;BME280;42885;49.754;18.636;2022-07-29T09:17:46;98387.58;;;26.25;100.00
56992;BME280;42885;49.754;18.636;2022-07-29T09:20:19;98383.81;;;26.30;100.00
56992;BME280;42885;49.754;18.636;2022-07-29T09:22:52;98379.53;;;26.25;100.00
56992;BME280;42885;49.754;18.636;2022-07-29T09:25:36;98379.44;;;26.51;100.00
56992;BME280;42885;49.754;18.636;2022-07-29T09:28:15;98375.41;;;26.62;100.00
56992;BME280;42885;49.754;18.636;2022-07-29T09:30:57;98375.36;;;26.55;100.00
56992;BME280;42885;49.754;18.636;2022-07-29T09:33:33;98374.69;;;26.64;100.00
56992;BME280;42885;49.754;18.636;2022-07-29T09:36:16;98372.08;;;26.71;100.00
56992;BME280;42885;49.754;18.636;2022-07-29T09:38:42;98371.00;;;26.93;100.00
56992;BME280;42885;49.754;18.636;2022-07-29T09:41:13;98366.78;;;26.84;100.00
56992;BME280;42885;49.754;18.636;2022-07-29T09:44:00;98365.25;;;26.57;100.00
56992;BME280;42885;49.754;18.636;2022-07-29T09:46:26;98361.42;;;26.56;100.00
56992;BME280;42885;49.754;18.636;2022-07-29T09:49:08;98358.86;;;26.87;100.00
56992;BME280;42885;49.754;18.636;2022-07-29T09:51:40;98349.70;;;27.20;100.00
56992;BME280;42885;49.754;18.636;2022-07-29T09:54:27;98349.02;;;27.54;100.00
56992;BME280;42885;49.754;18.636;2022-07-29T09:56:58;98350.16;;;27.55;100.00
56992;BME280;42885;49.754;18.636;2022-07-29T09:59:28;98343.62;;;27.71;100.00
56992;BME280;42885;49.754;18.636;2022-07-29T10:01:59;98345.02;;;27.92;100.00
56992;BME280;42885;49.754;18.636;2022-07-29T10:04:40;98341.33;;;27.51;100.00
56992;BME280;42885;49.754;18.636;2022-07-29T10:07:11;98336.96;;;27.60;100.00
56992;BME280;42885;49.754;18.636;2022-07-29T10:09:52;98328.69;;;28.00;100.00
56992;BME280;42885;49.754;18.636;2022-07-29T10:12:23;98333.19;;;28.30;100.00
56992;BME280;42885;49.754;18.636;2022-07-29T10:14:54;98335.03;;;28.64;100.00
56992;BME280;42885;49.754;18.636;2022-07-29T10:17:25;98328.84;;;27.85;100.00
56992;BME280;42885;49.754;18.636;2022-07-29T10:19:56;98331.14;;;27.81;100.00
56992;BME280;42885;49.754;18.636;2022-07-29T10:22:27;98341.66;;;27.27;100.00
56992;BME280;42885;49.754;18.636;2022-07-29T10:24:58;98330.75;;;28.05;100.00
56992;BME280;42885;49.754;18.636;2022-07-29T10:27:29;98327.91;;;28.53;100.00
56992;BME280;42885;49.754;18.636;2022-07-29T10:29:59;98324.27;;;28.64;100.00
56992;BME280;42885;49.754;18.636;2022-07-29T10:38:48;98325.61;;;28.64;100.00
56992;BME280;42885;49.754;18.636;2022-07-29T10:44:12;98325.33;;;28.36;100.00
56992;BME280;42885;49.754;18.636;2022-07-29T10:46:41;98323.42;;;28.63;100.00
56992;BME280;42885;49.754;18.636;2022-07-29T10:49:19;98325.41;;;28.38;100.00
56992;BME280;42885;49.754;18.636;2022-07-29T10:52:07;98320.84;;;28.12;100.00
56992;BME280;42885;49.754;18.636;2022-07-29T10:54:45;98316.89;;;28.82;100.00
56992;BME280;42885;49.754;18.636;2022-07-29T10:57:26;98323.77;;;28.24;100.00
56992;BME280;42885;49.754;18.636;2022-07-29T11:02:42;98324.64;;;28.94;100.00
56992;BME280;42885;49.754;18.636;2022-07-29T11:05:15;98326.70;;;29.06;100.00
56992;BME280;42885;49.754;18.636;2022-07-29T11:10:52;98324.69;;;28.34;100.00
56992;BME280;42885;49.754;18.636;2022-07-29T11:16:23;98326.95;;;28.30;100.00
56992;BME280;42885;49.754;18.636;2022-07-29T11:21:48;98329.03;;;28.62;100.00
56992;BME280;42885;49.754;18.636;2022-07-29T11:24:22;98322.73;;;28.45;100.00
56992;BME280;42885;49.754;18.636;2022-07-29T11:29:55;98320.66;;;29.47;100.00
56992;BME280;42885;49.754;18.636;2022-07-29T11:32:35;98318.94;;;29.91;100.00
56992;BME280;42885;49.754;18.636;2022-07-29T11:35:19;98319.66;;;28.98;100.00
56992;BME280;42885;49.754;18.636;2022-07-29T11:38:25;98323.34;;;28.27;100.00
56992;BME280;42885;49.754;18.636;2022-07-29T11:43:57;98303.64;;;30.43;95.45
56992;BME280;42885;49.754;18.636;2022-07-29T11:46:54;98305.94;;;29.98;95.05
56992;BME280;42885;49.754;18.636;2022-07-29T11:49:23;98308.23;;;29.39;100.00
56992;BME280;42885;49.754;18.636;2022-07-29T11:51:56;98305.11;;;29.81;97.83
56992;BME280;42885;49.754;18.636;2022-07-29T11:54:36;98303.81;;;30.48;97.01
56992;BME280;42885;49.754;18.636;2022-07-29T11:57:01;98303.82;;;30.57;93.30
56992;BME280;42885;49.754;18.636;2022-07-29T11:59:32;98302.76;;;31.02;87.50
56992;BME280;42885;49.754;18.636;2022-07-29T12:02:03;98289.81;;;31.51;81.74
56992;BME280;42885;49.754;18.636;2022-07-29T12:04:47;98290.89;;;32.26;81.05
56992;BME280;42885;49.754;18.636;2022-07-29T12:07:06;98290.66;;;31.64;66.77
56992;BME280;42885;49.754;18.636;2022-07-29T12:09:36;98292.54;;;31.04;79.55
56992;BME280;42885;49.754;18.636;2022-07-29T12:12:07;98285.65;;;31.58;67.13
56992;BME280;42885;49.754;18.636;2022-07-29T12:14:38;98289.27;;;31.52;64.82
56992;BME280;42885;49.754;18.636;2022-07-29T12:17:29;98287.81;;;31.58;57.35
56992;BME280;42885;49.754;18.636;2022-07-29T12:20:01;98279.72;;;32.34;57.86
56992;BME280;42885;49.754;18.636;2022-07-29T12:22:37;98282.20;;;32.03;59.29
56992;BME280;42885;49.754;18.636;2022-07-29T12:25:13;98286.52;;;32.85;55.20
56992;BME280;42885;49.754;18.636;2022-07-29T12:27:45;98286.52;;;32.85;55.20
56992;BME280;42885;49.754;18.636;2022-07-29T12:30:17;98290.05;;;31.12;57.36
56992;BME280;42885;49.754;18.636;2022-07-29T12:32:48;98290.05;;;31.12;57.36
56992;BME280;42885;49.754;18.636;2022-07-29T12:35:20;98285.42;;;32.35;55.41
56992;BME280;42885;49.754;18.636;2022-07-29T12:37:51;98286.98;;;31.37;50.08
56992;BME280;42885;49.754;18.636;2022-07-29T12:40:22;98281.70;;;31.72;49.67
56992;BME280;42885;49.754;18.636;2022-07-29T12:43:07;98268.72;;;32.50;48.58
56992;BME280;42885;49.754;18.636;2022-07-29T12:45:41;98272.11;;;32.81;47.92
56992;BME280;42885;49.754;18.636;2022-07-29T12:48:14;98262.91;;;32.23;51.40
56992;BME280;42885;49.754;18.636;2022-07-29T12:50:56;98265.33;;;32.81;51.83
56992;BME280;42885;49.754;18.636;2022-07-29T12:53:27;98256.73;;;32.73;46.20
56992;BME280;42885;49.754;18.636;2022-07-29T12:55:59;98256.45;;;33.39;44.92
56992;BME280;42885;49.754;18.636;2022-07-29T12:58:39;98259.81;;;32.64;48.67
56992;BME280;42885;49.754;18.636;2022-07-29T13:01:12;98259.22;;;32.74;49.22
56992;BME280;42885;49.754;18.636;2022-07-29T13:03:50;98250.61;;;33.30;46.47
56992;BME280;42885;49.754;18.636;2022-07-29T13:06:40;98252.09;;;33.23;45.54
56992;BME280;42885;49.754;18.636;2022-07-29T13:09:13;98254.13;;;33.45;45.64
56992;BME280;42885;49.754;18.636;2022-07-29T13:11:46;98264.02;;;31.58;50.76
56992;BME280;42885;49.754;18.636;2022-07-29T13:17:12;98257.73;;;31.55;53.58
56992;BME280;42885;49.754;18.636;2022-07-29T13:19:52;98248.07;;;33.26;49.57
56992;BME280;42885;49.754;18.636;2022-07-29T13:22:23;98242.84;;;33.83;45.71
56992;BME280;42885;49.754;18.636;2022-07-29T13:24:59;98239.66;;;33.86;44.83
56992;BME280;42885;49.754;18.636;2022-07-29T13:27:37;98239.11;;;34.18;41.58
56992;BME280;42885;49.754;18.636;2022-07-29T13:30:09;98235.35;;;32.74;44.97
56992;BME280;42885;49.754;18.636;2022-07-29T13:32:40;98232.52;;;31.85;49.64
56992;BME280;42885;49.754;18.636;2022-07-29T13:35:10;98224.26;;;31.58;53.69
56992;BME280;42885;49.754;18.636;2022-07-29T13:37:42;98226.03;;;30.57;55.41
56992;BME280;42885;49.754;18.636;2022-07-29T13:40:13;98228.75;;;31.43;52.08
56992;BME280;42885;49.754;18.636;2022-07-29T13:42:43;98222.12;;;30.99;53.08
56992;BME280;42885;49.754;18.636;2022-07-29T13:45:14;98220.72;;;30.87;55.90
56992;BME280;42885;49.754;18.636;2022-07-29T13:47:45;98226.95;;;29.74;61.93
56992;BME280;42885;49.754;18.636;2022-07-29T13:50:16;98227.93;;;30.12;58.51
56992;BME280;42885;49.754;18.636;2022-07-29T13:52:46;98219.09;;;31.17;53.84